Time;durP1;ratioP1;P1;durP2;ratioP2;P2;SDS_P1;SDS_P2;PMS_P1;PMS_P2;Temp;Humidity;BMP_temperature;BMP_pressure;BME280_temperature;BME280_humidity;BME280_pressure;Samples;Min_cycle;Max_cycle;Signal;HPM_P1;HPM_P2
2024/03/19 00:02:11;;;;;;;21.08;13.18;;;7.60;99.90;;;;;;5040513;28;20507;-76
2024/03/19 00:04:39;;;;;;;18.83;12.25;;;7.60;99.90;;;;;;5069301;28;20032;-76
2024/03/19 00:07:05;;;;;;;14.57;11.10;;;7.60;99.90;;;;;;5038682;28;20078;-76
2024/03/19 00:09:31;;;;;;;19.42;12.13;;;7.60;99.90;;;;;;5055225;28;20028;-76
2024/03/19 00:11:57;;;;;;;17.30;11.32;;;7.60;99.90;;;;;;5069030;28;20095;-77
2024/03/19 00:14:22;;;;;;;19.83;12.95;;;7.60;99.90;;;;;;5062714;28;20712;-76
2024/03/19 00:16:49;;;;;;;20.35;13.15;;;7.60;99.90;;;;;;5036481;28;20029;-76
2024/03/19 00:19:17;;;;;;;20.95;14.35;;;7.50;99.90;;;;;;5035160;28;20021;-76
2024/03/19 00:21:42;;;;;;;20.00;13.50;;;7.60;99.90;;;;;;5052430;28;20447;-76
2024/03/19 00:24:08;;;;;;;19.40;13.48;;;7.50;99.90;;;;;;5050552;28;20139;-76
2024/03/19 00:26:36;;;;;;;20.75;13.27;;;7.50;99.90;;;;;;5063173;28;20122;-77
2024/03/19 00:29:03;;;;;;;24.42;14.98;;;7.50;99.90;;;;;;5066681;28;20111;-78
2024/03/19 00:31:30;;;;;;;28.55;17.88;;;7.50;99.90;;;;;;5067015;28;20039;-78
2024/03/19 00:33:57;;;;;;;25.67;16.40;;;7.50;99.90;;;;;;5070370;28;20483;-78
2024/03/19 00:36:23;;;;;;;22.08;15.93;;;7.50;99.90;;;;;;5052031;28;20395;-78
2024/03/19 00:38:49;;;;;;;24.10;15.85;;;7.50;99.90;;;;;;5070337;28;20392;-78
2024/03/19 00:41:17;;;;;;;22.58;15.07;;;7.50;99.90;;;;;;5058602;28;20024;-78
2024/03/19 00:43:42;;;;;;;25.33;16.05;;;7.50;99.90;;;;;;5051040;28;20078;-79
2024/03/19 00:46:08;;;;;;;22.30;15.00;;;7.40;99.90;;;;;;5048979;28;20543;-77
2024/03/19 00:48:34;;;;;;;22.55;14.40;;;7.40;99.90;;;;;;5051015;28;20111;-77
2024/03/19 00:51:00;;;;;;;19.15;13.70;;;7.50;99.90;;;;;;5041577;28;20049;-77
2024/03/19 00:53:27;;;;;;;18.85;11.55;;;7.50;99.90;;;;;;5050103;28;20520;-77
2024/03/19 00:55:53;;;;;;;22.38;13.27;;;7.60;99.90;;;;;;5049082;28;20048;-77
2024/03/19 00:58:19;;;;;;;17.75;12.38;;;7.60;99.90;;;;;;5056632;28;20033;-77
2024/03/19 01:00:46;;;;;;;19.75;13.85;;;7.70;99.90;;;;;;5059744;28;20036;-77
2024/03/19 01:03:11;;;;;;;15.35;11.25;;;7.70;99.90;;;;;;5051128;28;20040;-78
2024/03/19 01:05:39;;;;;;;20.58;13.25;;;7.70;99.90;;;;;;5070660;28;20033;-78
2024/03/19 01:08:07;;;;;;;20.92;12.15;;;7.70;99.90;;;;;;5069155;28;20021;-77
2024/03/19 01:10:32;;;;;;;18.42;11.10;;;7.80;99.90;;;;;;5059838;28;20036;-78
2024/03/19 01:12:58;;;;;;;16.77;11.57;;;7.80;99.90;;;;;;5048802;28;20484;-78
2024/03/19 01:15:24;;;;;;;15.38;10.48;;;7.70;99.90;;;;;;5061800;28;20103;-77
2024/03/19 01:17:51;;;;;;;18.40;11.80;;;7.70;99.90;;;;;;5064646;28;20048;-78
2024/03/19 01:20:17;;;;;;;16.17;10.27;;;7.60;99.90;;;;;;5052732;28;20028;-77
2024/03/19 01:22:43;;;;;;;18.75;11.82;;;7.60;99.90;;;;;;5038861;28;20032;-78
2024/03/19 01:25:09;;;;;;;13.45;10.57;;;7.50;99.90;;;;;;5068841;28;20033;-78
2024/03/19 01:27:36;;;;;;;17.42;10.88;;;7.40;99.90;;;;;;5070015;28;20023;-78
2024/03/19 01:30:03;;;;;;;20.30;12.43;;;7.40;99.90;;;;;;5068839;28;20040;-78
2024/03/19 01:32:29;;;;;;;25.60;15.70;;;7.30;99.90;;;;;;5070046;28;20028;-78
2024/03/19 01:34:55;;;;;;;26.88;17.17;;;7.20;99.90;;;;;;5063145;28;20032;-78
2024/03/19 01:37:21;;;;;;;24.27;15.68;;;7.20;99.90;;;;;;5022485;28;20329;-78
2024/03/19 01:39:47;;;;;;;21.98;14.95;;;7.10;99.90;;;;;;5058389;28;20037;-79
2024/03/19 01:42:13;;;;;;;18.10;11.85;;;7.10;99.90;;;;;;5065815;28;20033;-78
2024/03/19 01:44:38;;;;;;;16.27;11.23;;;7.00;99.90;;;;;;5060683;28;20063;-77
2024/03/19 01:47:04;;;;;;;16.13;10.57;;;7.00;99.90;;;;;;5053944;28;20052;-76
2024/03/19 01:49:31;;;;;;;19.77;11.75;;;6.90;99.90;;;;;;5070207;28;20064;-76
2024/03/19 01:51:58;;;;;;;16.48;11.73;;;6.90;99.90;;;;;;5054005;28;20052;-76
2024/03/19 01:54:26;;;;;;;18.65;12.43;;;6.80;99.90;;;;;;5048528;28;20031;-75
2024/03/19 01:56:52;;;;;;;17.98;12.63;;;6.80;99.90;;;;;;5044995;28;20025;-74
2024/03/19 01:59:24;;;;;;;17.45;11.10;;;6.80;99.90;;;;;;5044231;28;20029;-74
2024/03/19 02:01:56;;;;;;;20.17;11.68;;;6.80;99.90;;;;;;5029631;28;20036;-74
2024/03/19 02:04:28;;;;;;;14.73;10.73;;;6.70;99.90;;;;;;5044698;28;20048;-74
2024/03/19 02:06:53;;;;;;;13.48;10.57;;;6.60;99.90;;;;;;5061654;28;20024;-75
2024/03/19 02:09:19;;;;;;;22.50;14.32;;;6.60;99.90;;;;;;5062052;28;20506;-75
2024/03/19 02:11:47;;;;;;;24.45;14.32;;;6.50;99.90;;;;;;5048394;28;20094;-75
2024/03/19 02:14:13;;;;;;;26.38;15.13;;;6.50;99.90;;;;;;5063106;28;20012;-76
2024/03/19 02:16:41;;;;;;;24.67;14.18;;;6.50;99.90;;;;;;5061724;28;20071;-75
2024/03/19 02:19:13;;;;;;;19.75;13.18;;;6.40;99.90;;;;;;5060254;28;20017;-75
2024/03/19 02:21:38;;;;;;;20.48;13.05;;;6.40;99.90;;;;;;5062355;28;20021;-75
2024/03/19 02:24:04;;;;;;;19.90;13.52;;;6.40;99.90;;;;;;5059336;28;20066;-75
2024/03/19 02:26:31;;;;;;;26.27;14.73;;;6.30;99.90;;;;;;5026831;28;20049;-75
2024/03/19 02:29:00;;;;;;;26.73;15.52;;;6.30;99.90;;;;;;5057042;28;20051;-75
2024/03/19 02:31:27;;;;;;;28.58;16.40;;;6.30;99.90;;;;;;5052225;28;20033;-75
2024/03/19 02:33:56;;;;;;;22.95;15.27;;;6.20;99.90;;;;;;5046792;28;20127;-75
2024/03/19 02:36:30;;;;;;;35.47;18.52;;;6.30;99.90;;;;;;5052693;28;20646;-75
2024/03/19 02:38:56;;;;;;;26.33;15.15;;;6.30;99.90;;;;;;5067428;28;20024;-75
2024/03/19 02:41:22;;;;;;;22.83;13.63;;;6.30;99.90;;;;;;5061223;28;20033;-75
2024/03/19 02:43:47;;;;;;;23.98;14.27;;;6.30;99.90;;;;;;5049971;28;20347;-76
2024/03/19 02:46:14;;;;;;;26.20;14.68;;;6.30;99.90;;;;;;5051313;28;20104;-76
2024/03/19 02:48:40;;;;;;;22.70;13.30;;;6.30;99.90;;;;;;5048288;28;20031;-75
2024/03/19 02:51:05;;;;;;;22.08;14.93;;;6.30;99.90;;;;;;5048206;28;20039;-75
2024/03/19 02:53:31;;;;;;;29.67;15.15;;;6.30;99.90;;;;;;5030939;28;20044;-75
2024/03/19 02:55:58;;;;;;;26.90;16.27;;;6.30;99.90;;;;;;5051025;28;20020;-74
2024/03/19 02:58:24;;;;;;;27.83;15.88;;;6.30;99.90;;;;;;5052350;28;20381;-74
2024/03/19 03:00:52;;;;;;;26.20;15.43;;;6.30;99.90;;;;;;5033540;28;20039;-75
2024/03/19 03:03:21;;;;;;;25.05;15.05;;;6.30;99.90;;;;;;5033641;28;20112;-75
2024/03/19 03:05:47;;;;;;;22.23;14.48;;;6.20;99.90;;;;;;5052130;28;20504;-76
2024/03/19 03:08:19;;;;;;;26.27;15.20;;;6.10;99.90;;;;;;5051153;28;20429;-75
2024/03/19 03:10:44;;;;;;;30.23;17.45;;;6.10;99.90;;;;;;5046313;28;20473;-75
2024/03/19 03:13:11;;;;;;;27.73;17.45;;;6.10;99.90;;;;;;5032783;28;20108;-75
2024/03/19 03:15:36;;;;;;;27.13;15.65;;;6.00;99.90;;;;;;5046770;28;20094;-76
2024/03/19 03:18:02;;;;;;;25.77;15.52;;;6.00;99.90;;;;;;5051021;28;20492;-76
2024/03/19 03:20:28;;;;;;;25.63;16.20;;;6.00;99.90;;;;;;5024802;28;20104;-75
2024/03/19 03:22:54;;;;;;;27.27;15.98;;;6.00;99.90;;;;;;5029352;28;20080;-74
2024/03/19 03:25:21;;;;;;;29.52;17.15;;;6.00;99.90;;;;;;5043358;28;20047;-76
2024/03/19 03:27:47;;;;;;;30.15;17.42;;;6.00;99.90;;;;;;5051813;28;20025;-75
2024/03/19 03:30:14;;;;;;;29.73;17.27;;;6.00;99.90;;;;;;5068731;28;20549;-75
2024/03/19 03:32:41;;;;;;;30.77;17.67;;;6.10;99.90;;;;;;5071806;28;20025;-76
2024/03/19 03:35:13;;;;;;;32.17;18.17;;;6.10;99.90;;;;;;5035090;28;20032;-75
2024/03/19 03:37:43;;;;;;;28.77;17.92;;;6.10;99.90;;;;;;5059057;28;20032;-75
2024/03/19 03:40:13;;;;;;;28.48;17.25;;;6.10;99.90;;;;;;5083498;28;20039;-75
2024/03/19 03:42:42;;;;;;;26.45;16.13;;;6.10;99.90;;;;;;5063378;28;20029;-73
2024/03/19 03:45:12;;;;;;;26.02;16.27;;;6.00;99.90;;;;;;5064857;28;20036;-75
2024/03/19 03:47:47;;;;;;;22.20;15.27;;;6.00;99.90;;;;;;5093030;28;20017;-76
2024/03/19 03:50:15;;;;;;;28.95;17.25;;;5.90;99.90;;;;;;5075013;28;20033;-76
2024/03/19 03:52:41;;;;;;;29.60;18.25;;;5.80;99.90;;;;;;5075927;28;20125;-75
2024/03/19 03:55:09;;;;;;;44.10;24.10;;;5.70;99.90;;;;;;5073076;28;20052;-76
2024/03/19 03:57:37;;;;;;;45.97;24.83;;;5.70;99.90;;;;;;5073860;28;20025;-76
2024/03/19 04:00:11;;;;;;;39.25;21.52;;;5.70;99.90;;;;;;5053829;28;20025;-75
2024/03/19 04:02:56;;;;;;;33.75;18.92;;;5.70;99.90;;;;;;5066564;28;20084;-76
2024/03/19 04:05:24;;;;;;;36.15;19.40;;;5.70;99.90;;;;;;5058141;28;20504;-76
2024/03/19 04:07:50;;;;;;;34.05;20.15;;;5.80;99.90;;;;;;5053885;28;20020;-76
2024/03/19 04:10:25;;;;;;;27.77;17.67;;;5.80;99.90;;;;;;5052428;28;20040;-76
2024/03/19 04:12:50;;;;;;;29.38;18.30;;;5.70;99.90;;;;;;5057820;28;20032;-76
2024/03/19 04:15:16;;;;;;;33.83;18.60;;;5.70;99.90;;;;;;5052449;28;20025;-75
2024/03/19 04:17:42;;;;;;;33.88;17.65;;;5.60;99.90;;;;;;5050700;28;20040;-75
2024/03/19 04:20:13;;;;;;;30.02;16.70;;;5.60;99.90;;;;;;5048359;28;20071;-76
2024/03/19 04:22:39;;;;;;;29.13;17.42;;;5.50;99.90;;;;;;5070307;28;20029;-75
2024/03/19 04:25:08;;;;;;;28.48;16.50;;;5.40;99.90;;;;;;5070206;28;20423;-76
2024/03/19 04:27:35;;;;;;;24.48;15.93;;;5.40;99.90;;;;;;5071136;28;20099;-76
2024/03/19 04:30:03;;;;;;;27.13;16.30;;;5.30;99.90;;;;;;5051292;28;20110;-76
2024/03/19 04:32:30;;;;;;;26.63;16.40;;;5.30;99.90;;;;;;5063955;28;20094;-77
2024/03/19 04:34:56;;;;;;;23.75;15.68;;;5.20;99.90;;;;;;5069701;28;20472;-77
2024/03/19 04:37:23;;;;;;;23.63;14.23;;;5.20;99.90;;;;;;5023170;28;20035;-75
2024/03/19 04:39:51;;;;;;;24.17;15.07;;;5.20;99.90;;;;;;5074918;28;20073;-73
2024/03/19 04:42:19;;;;;;;19.90;14.07;;;5.10;99.90;;;;;;5064478;28;20032;-73
2024/03/19 04:44:44;;;;;;;19.48;13.40;;;5.10;99.90;;;;;;5046889;28;20398;-73
2024/03/19 04:47:11;;;;;;;19.33;12.50;;;5.00;99.90;;;;;;5061123;28;20059;-73
2024/03/19 04:49:38;;;;;;;18.35;12.68;;;5.00;99.90;;;;;;5066429;28;20029;-72
2024/03/19 04:52:04;;;;;;;19.05;12.95;;;4.90;99.90;;;;;;5062442;28;20106;-72
2024/03/19 04:54:30;;;;;;;21.35;13.40;;;4.80;99.90;;;;;;5056860;28;20025;-72
2024/03/19 04:56:56;;;;;;;21.17;13.75;;;4.80;99.90;;;;;;5061374;28;20025;-71
2024/03/19 04:59:22;;;;;;;23.65;14.80;;;4.70;99.90;;;;;;5041354;28;20505;-74
2024/03/19 05:01:48;;;;;;;19.23;13.20;;;4.70;99.90;;;;;;5068719;28;20391;-75
2024/03/19 05:04:14;;;;;;;21.48;13.98;;;4.70;99.90;;;;;;5045866;28;20037;-75
2024/03/19 05:06:40;;;;;;;20.05;12.75;;;4.60;99.90;;;;;;5069244;28;20082;-75
2024/03/19 05:09:06;;;;;;;22.98;13.77;;;4.60;99.90;;;;;;5067814;28;20074;-75
2024/03/19 05:11:33;;;;;;;18.85;13.35;;;4.60;99.90;;;;;;5069656;28;20029;-75
2024/03/19 05:13:59;;;;;;;19.77;13.05;;;4.60;99.90;;;;;;5047360;28;20108;-75
2024/03/19 05:16:24;;;;;;;23.90;13.95;;;4.50;99.90;;;;;;5051288;28;20112;-74
2024/03/19 05:18:50;;;;;;;26.48;15.25;;;4.60;99.90;;;;;;5056340;28;20029;-75
2024/03/19 05:21:16;;;;;;;22.77;14.35;;;4.60;99.90;;;;;;5049924;28;20044;-75
2024/03/19 05:23:43;;;;;;;22.30;14.23;;;4.60;99.90;;;;;;5062933;28;20028;-75
2024/03/19 05:26:10;;;;;;;23.08;14.85;;;4.60;99.90;;;;;;5053086;28;20559;-74
2024/03/19 05:28:35;;;;;;;22.45;14.45;;;4.60;99.90;;;;;;5061473;28;20047;-75
2024/03/19 05:31:19;;;;;;;21.17;13.65;;;4.60;99.90;;;;;;5061705;28;20037;-75
2024/03/19 05:33:45;;;;;;;21.15;13.43;;;4.60;99.90;;;;;;5073552;28;20565;-72
2024/03/19 05:36:10;;;;;;;23.40;12.68;;;4.50;99.90;;;;;;5067245;28;20029;-72
2024/03/19 05:38:38;;;;;;;17.20;12.20;;;4.50;99.90;;;;;;5054763;28;20040;-72
2024/03/19 05:41:04;;;;;;;18.17;12.95;;;4.50;99.90;;;;;;5072428;28;20037;-75
2024/03/19 05:43:30;;;;;;;19.23;13.10;;;4.50;99.90;;;;;;5072765;28;20215;-75
2024/03/19 05:45:58;;;;;;;16.95;12.45;;;4.50;99.90;;;;;;5056068;28;20134;-75
2024/03/19 05:48:24;;;;;;;19.92;13.13;;;4.50;99.90;;;;;;5059087;28;20033;-75
2024/03/19 05:50:50;;;;;;;18.70;12.98;;;4.50;99.90;;;;;;5070965;28;20037;-75
2024/03/19 05:53:16;;;;;;;20.73;13.02;;;4.50;99.90;;;;;;5065433;28;20644;-75
2024/03/19 05:55:43;;;;;;;18.40;12.60;;;4.50;99.90;;;;;;5046077;28;20021;-74
2024/03/19 05:58:10;;;;;;;19.02;13.55;;;4.50;99.90;;;;;;5048096;28;20082;-74
2024/03/19 06:00:35;;;;;;;20.85;14.32;;;4.50;99.90;;;;;;5053253;28;20017;-75
2024/03/19 06:03:01;;;;;;;17.30;11.90;;;4.60;99.90;;;;;;5069749;28;20040;-74
2024/03/19 06:05:27;;;;;;;18.98;13.18;;;4.60;99.90;;;;;;5068023;28;20028;-74
2024/03/19 06:07:53;;;;;;;20.15;13.52;;;4.60;99.90;;;;;;5053316;28;20028;-74
2024/03/19 06:10:20;;;;;;;20.63;13.90;;;4.60;99.90;;;;;;5073013;28;20075;-75
2024/03/19 06:12:45;;;;;;;29.45;14.38;;;4.70;99.90;;;;;;5078264;28;20494;-74
2024/03/19 06:15:11;;;;;;;22.70;14.30;;;4.70;99.90;;;;;;5078490;28;20036;-74
2024/03/19 06:17:37;;;;;;;20.55;14.88;;;4.80;99.90;;;;;;5070618;28;20028;-74
2024/03/19 06:20:08;;;;;;;20.65;13.80;;;4.80;99.90;;;;;;5074946;28;20029;-74
2024/03/19 06:22:34;;;;;;;21.92;12.65;;;4.90;99.90;;;;;;5053654;28;20041;-75
2024/03/19 06:25:03;;;;;;;17.42;12.27;;;5.00;99.90;;;;;;5081693;28;20033;-74
2024/03/19 06:27:29;;;;;;;17.77;12.70;;;5.10;99.90;;;;;;5069375;28;20107;-75
2024/03/19 06:29:55;;;;;;;15.90;12.45;;;5.10;99.90;;;;;;5055934;28;20519;-75
2024/03/19 06:32:21;;;;;;;14.77;10.63;;;5.20;99.90;;;;;;5075265;28;20495;-75
2024/03/19 06:34:48;;;;;;;18.35;12.60;;;5.20;99.90;;;;;;5075655;28;20115;-76
2024/03/19 06:37:13;;;;;;;15.65;11.88;;;5.30;99.90;;;;;;5067916;28;20024;-76
2024/03/19 06:39:39;;;;;;;22.13;15.50;;;5.40;99.90;;;;;;5063967;28;20031;-76
2024/03/19 06:42:05;;;;;;;26.38;17.85;;;5.40;99.90;;;;;;5065143;28;20085;-75
2024/03/19 06:44:31;;;;;;;27.15;17.45;;;5.50;99.90;;;;;;5062154;28;20040;-77
2024/03/19 06:46:57;;;;;;;22.95;16.77;;;5.60;99.90;;;;;;5066851;28;20036;-76
2024/03/19 06:49:24;;;;;;;30.65;18.77;;;5.70;99.90;;;;;;5064180;28;20102;-76
2024/03/19 06:51:51;;;;;;;27.02;18.63;;;5.70;99.90;;;;;;5052361;28;20085;-76
2024/03/19 06:54:17;;;;;;;23.60;16.17;;;5.80;99.90;;;;;;5069665;28;20028;-76
2024/03/19 06:56:44;;;;;;;23.00;16.77;;;5.80;99.90;;;;;;5053764;28;20644;-76
2024/03/19 06:59:11;;;;;;;20.60;14.65;;;5.80;99.90;;;;;;5069248;28;20044;-74
2024/03/19 07:01:38;;;;;;;23.60;14.90;;;5.90;99.90;;;;;;5055087;28;20115;-73
2024/03/19 07:04:05;;;;;;;25.20;17.10;;;5.90;99.90;;;;;;5070027;28;20051;-73
2024/03/19 07:06:34;;;;;;;24.15;16.77;;;6.00;99.90;;;;;;5056155;28;20024;-73
2024/03/19 07:09:01;;;;;;;;;;;6.10;99.90;;;;;;5031734;28;20029;-73
2024/03/19 07:11:27;;;;;;;25.13;17.58;;;6.20;99.90;;;;;;5069370;28;20355;-73
2024/03/19 07:13:54;;;;;;;24.13;17.63;;;6.30;99.90;;;;;;5060775;28;20088;-73
2024/03/19 07:16:20;;;;;;;22.65;17.45;;;6.40;99.90;;;;;;5056742;28;20545;-73
2024/03/19 07:18:46;;;;;;;24.17;17.38;;;6.60;99.90;;;;;;5060859;28;20127;-73
2024/03/19 07:21:12;;;;;;;23.77;17.55;;;6.70;99.90;;;;;;5069950;28;20033;-73
2024/03/19 07:23:38;;;;;;;22.45;16.80;;;6.90;99.90;;;;;;5059716;28;20064;-73
2024/03/19 07:26:04;;;;;;;25.38;16.45;;;7.10;99.90;;;;;;5050386;28;20064;-73
2024/03/19 07:28:30;;;;;;;16.92;14.27;;;7.30;99.90;;;;;;5066638;28;20055;-77
2024/03/19 07:30:57;;;;;;;15.55;12.80;;;7.50;99.90;;;;;;5069674;28;20020;-79
2024/03/19 07:33:23;;;;;;;13.98;11.25;;;7.70;99.90;;;;;;5028794;28;20425;-77
2024/03/19 07:35:49;;;;;;;13.00;9.88;;;7.90;99.90;;;;;;5062512;28;20048;-77
2024/03/19 07:38:16;;;;;;;10.10;8.55;;;8.10;99.90;;;;;;5062180;28;20056;-77
2024/03/19 07:40:42;;;;;;;10.65;8.77;;;8.40;99.90;;;;;;5061171;28;20552;-76
2024/03/19 07:43:09;;;;;;;10.65;7.55;;;8.70;99.90;;;;;;5060894;28;20386;-73
2024/03/19 07:45:36;;;;;;;10.07;7.72;;;8.90;99.90;;;;;;5055818;28;20089;-76
2024/03/19 07:48:05;;;;;;;8.90;7.07;;;9.10;99.90;;;;;;5040460;28;20380;-76
2024/03/19 07:50:34;;;;;;;8.93;7.38;;;9.30;99.90;;;;;;5057452;28;20040;-78
2024/03/19 07:53:00;;;;;;;7.68;6.40;;;9.40;99.90;;;;;;5070964;28;20020;-75
2024/03/19 07:55:26;;;;;;;8.68;6.40;;;9.60;99.90;;;;;;5075627;28;20078;-79
2024/03/19 07:57:53;;;;;;;7.75;6.78;;;9.70;99.90;;;;;;5077789;28;20021;-80
2024/03/19 08:00:19;;;;;;;7.72;6.40;;;9.90;99.90;;;;;;5063373;28;20388;-79
2024/03/19 08:02:44;;;;;;;6.47;5.82;;;10.00;99.90;;;;;;5065885;28;20025;-76
2024/03/19 08:05:13;;;;;;;9.80;6.50;;;10.20;99.90;;;;;;5060124;28;20760;-77
2024/03/19 08:07:41;;;;;;;9.20;6.82;;;10.30;99.90;;;;;;5062821;28;20027;-77
2024/03/19 08:10:07;;;;;;;9.70;6.53;;;10.60;99.90;;;;;;5045170;28;20033;-77
2024/03/19 08:12:34;;;;;;;11.65;7.97;;;10.60;99.90;;;;;;5043784;28;20035;-77
2024/03/19 08:15:02;;;;;;;10.38;7.07;;;10.70;99.90;;;;;;5060290;28;20548;-77
2024/03/19 08:17:28;;;;;;;9.77;7.90;;;10.90;99.90;;;;;;5061605;28;20017;-77
2024/03/19 08:19:54;;;;;;;10.98;6.80;;;10.90;99.90;;;;;;5041344;28;20065;-77
2024/03/19 08:22:27;;;;;;;8.63;6.75;;;10.90;99.90;;;;;;5042946;28;20123;-77
2024/03/19 08:24:53;;;;;;;8.57;7.00;;;11.00;99.90;;;;;;5062794;28;20032;-75
2024/03/19 08:27:25;;;;;;;8.57;6.78;;;11.10;99.90;;;;;;5060503;28;20024;-74
2024/03/19 08:29:52;;;;;;;10.65;7.35;;;11.10;99.90;;;;;;5040233;28;20037;-74
2024/03/19 08:32:18;;;;;;;8.93;6.95;;;11.10;99.90;;;;;;5038544;28;20079;-74
2024/03/19 08:34:44;;;;;;;9.15;7.18;;;11.10;99.90;;;;;;5036873;28;20480;-74
2024/03/19 08:37:10;;;;;;;10.73;7.32;;;11.10;99.90;;;;;;5021213;28;20178;-74
2024/03/19 08:39:36;;;;;;;10.73;7.18;;;11.30;99.90;;;;;;5040351;28;20108;-75
2024/03/19 08:42:02;;;;;;;14.10;7.82;;;11.50;99.90;;;;;;5045645;28;20465;-74
2024/03/19 08:44:28;;;;;;;12.98;7.47;;;11.60;99.90;;;;;;5038447;28;20405;-74
2024/03/19 08:46:53;;;;;;;11.82;7.30;;;11.80;99.90;;;;;;5041900;28;20099;-74
2024/03/19 08:49:19;;;;;;;8.07;7.00;;;12.00;99.90;;;;;;5025350;28;20083;-75
2024/03/19 08:51:46;;;;;;;9.48;7.75;;;12.20;99.90;;;;;;5037886;28;20093;-75
2024/03/19 08:54:11;;;;;;;9.55;6.78;;;12.40;99.90;;;;;;5029546;28;20018;-74
2024/03/19 08:56:38;;;;;;;6.88;5.78;;;12.50;99.90;;;;;;5044897;28;20062;-76
2024/03/19 08:59:05;;;;;;;9.02;6.30;;;12.60;99.90;;;;;;5027128;28;20404;-75
2024/03/19 09:01:31;;;;;;;10.82;6.20;;;12.70;99.90;;;;;;5060961;28;20488;-75
2024/03/19 09:03:57;;;;;;;7.97;5.97;;;12.90;99.90;;;;;;5040132;28;20055;-75
2024/03/19 09:06:25;;;;;;;10.10;5.72;;;13.00;99.90;;;;;;5047032;28;20492;-73
2024/03/19 09:08:52;;;;;;;7.63;6.03;;;13.10;99.90;;;;;;5044751;28;20102;-72
2024/03/19 09:11:18;;;;;;;8.13;5.28;;;13.30;99.90;;;;;;5038041;28;20104;-74
2024/03/19 09:13:44;;;;;;;7.05;5.15;;;13.50;99.90;;;;;;5047811;28;20091;-74
2024/03/19 09:16:13;;;;;;;7.43;5.32;;;13.80;99.90;;;;;;5049147;28;20295;-74
2024/03/19 09:18:42;;;;;;;5.45;4.95;;;13.90;99.90;;;;;;5043313;28;20052;-74
2024/03/19 09:21:12;;;;;;;7.55;4.82;;;14.10;99.90;;;;;;5030552;28;20493;-74
2024/03/19 09:23:40;;;;;;;6.97;4.55;;;14.20;99.90;;;;;;5049309;28;20083;-75
2024/03/19 09:26:05;;;;;;;7.22;5.20;;;14.30;99.90;;;;;;5045399;28;20111;-74
2024/03/19 09:28:31;;;;;;;8.23;4.85;;;14.30;99.90;;;;;;5044529;28;20132;-73
2024/03/19 09:31:00;;;;;;;8.85;5.70;;;14.40;99.90;;;;;;5051574;28;20021;-73
2024/03/19 09:33:27;;;;;;;8.38;5.20;;;14.50;99.90;;;;;;5056937;28;20024;-75
2024/03/19 09:35:53;;;;;;;5.82;5.05;;;14.50;99.90;;;;;;5052246;28;20013;-74
2024/03/19 09:38:21;;;;;;;7.45;5.30;;;14.60;99.90;;;;;;5035628;28;20031;-74
2024/03/19 09:40:57;;;;;;;8.52;5.30;;;14.60;99.90;;;;;;5052620;28;20013;-74
2024/03/19 09:43:24;;;;;;;8.63;5.57;;;14.60;99.90;;;;;;5028678;28;20025;-73
2024/03/19 09:45:52;;;;;;;6.75;4.80;;;14.80;99.90;;;;;;4995020;28;20033;-73
2024/03/19 09:48:20;;;;;;;9.88;5.72;;;14.80;99.90;;;;;;5058238;28;20021;-75
2024/03/19 09:50:47;;;;;;;5.35;4.70;;;14.90;99.90;;;;;;5051653;28;20025;-74
2024/03/19 09:53:24;;;;;;;6.75;4.82;;;14.80;99.90;;;;;;5039106;28;20049;-75
2024/03/19 09:55:52;;;;;;;6.70;5.13;;;14.90;99.90;;;;;;5022603;28;20377;-75
2024/03/19 09:58:23;;;;;;;5.85;4.53;;;14.90;99.90;;;;;;5050110;28;20026;-75
2024/03/19 10:00:53;;;;;;;7.47;4.95;;;14.90;99.90;;;;;;5048356;28;20017;-75
2024/03/19 10:03:19;;;;;;;6.30;4.78;;;14.80;99.90;;;;;;5046099;28;20037;-75
2024/03/19 10:05:45;;;;;;;6.57;4.30;;;14.80;99.90;;;;;;5050678;28;20082;-74
2024/03/19 10:08:16;;;;;;;7.97;4.78;;;14.80;99.90;;;;;;5037137;28;20556;-74
2024/03/19 10:10:47;;;;;;;5.05;4.28;;;14.80;99.90;;;;;;5051173;28;20044;-75
2024/03/19 10:13:13;;;;;;;7.53;5.25;;;14.70;99.90;;;;;;5049869;28;20040;-73
2024/03/19 10:15:39;;;;;;;5.28;4.20;;;14.60;99.90;;;;;;5052659;28;20029;-74
2024/03/19 10:18:08;;;;;;;4.80;4.13;;;14.40;99.90;;;;;;5052031;28;20127;-74
2024/03/19 10:20:39;;;;;;;8.88;4.88;;;14.30;99.90;;;;;;5051875;28;20074;-74
2024/03/19 10:23:23;;;;;;;7.63;4.57;;;14.20;99.90;;;;;;5043861;28;20370;-74
2024/03/19 10:25:53;;;;;;;8.32;4.70;;;14.10;99.90;;;;;;5049823;28;20029;-74
2024/03/19 10:28:20;;;;;;;9.47;4.43;;;14.10;99.90;;;;;;5042736;28;20032;-74
2024/03/19 10:30:49;;;;;;;6.35;4.68;;;14.00;99.90;;;;;;5071278;28;20031;-74
2024/03/19 10:33:15;;;;;;;12.45;4.53;;;14.10;99.90;;;;;;5049820;28;20043;-74
2024/03/19 10:35:42;;;;;;;4.03;3.63;;;14.30;99.90;;;;;;5066886;28;20063;-74
2024/03/19 10:38:14;;;;;;;3.75;3.30;;;14.40;99.90;;;;;;5068061;28;20100;-74
2024/03/19 10:40:42;;;;;;;3.35;3.05;;;14.40;99.90;;;;;;5055421;28;20013;-73
2024/03/19 10:43:21;;;;;;;4.75;3.50;;;14.40;99.90;;;;;;5064803;28;20060;-74
2024/03/19 10:45:49;;;;;;;7.33;3.37;;;14.60;99.90;;;;;;5058231;28;20024;-74
2024/03/19 10:48:15;;;;;;;5.13;3.20;;;14.80;99.90;;;;;;5060844;28;20032;-74
2024/03/19 10:50:45;;;;;;;6.72;3.60;;;14.90;99.90;;;;;;5063324;28;20419;-77
2024/03/19 10:53:18;;;;;;;5.60;3.23;;;15.10;99.90;;;;;;5055710;28;20029;-78
2024/03/19 10:55:50;;;;;;;4.72;3.10;;;15.20;99.90;;;;;;5051171;28;20558;-77
2024/03/19 10:58:19;;;;;;;6.85;3.08;;;15.30;99.90;;;;;;5055333;28;20451;-78
2024/03/19 11:00:48;;;;;;;4.88;3.33;;;15.40;99.90;;;;;;5040247;28;20025;-80
2024/03/19 11:03:18;;;;;;;6.45;2.92;;;15.30;99.90;;;;;;5029335;28;20040;-77
2024/03/19 11:05:54;;;;;;;3.38;2.67;;;15.20;99.90;;;;;;5064969;28;20020;-77
2024/03/19 11:08:20;;;;;;;8.68;3.13;;;15.00;99.90;;;;;;5057911;28;20024;-78
2024/03/19 11:10:46;;;;;;;4.00;2.42;;;15.00;99.90;;;;;;5058632;28;20075;-77
2024/03/19 11:13:25;;;;;;;7.45;2.70;;;14.90;99.90;;;;;;5064480;28;20032;-77
2024/03/19 11:15:52;;;;;;;5.25;2.58;;;14.80;99.90;;;;;;5060168;28;20131;-77
2024/03/19 11:18:19;;;;;;;2.83;2.00;;;15.00;99.90;;;;;;5063182;28;20028;-77
2024/03/19 11:20:51;;;;;;;4.22;2.65;;;15.10;99.90;;;;;;5042139;28;20091;-77
2024/03/19 11:23:27;;;;;;;4.30;2.47;;;15.30;99.90;;;;;;5055634;28;20074;-78
2024/03/19 11:25:56;;;;;;;3.38;2.20;;;15.60;99.90;;;;;;5046934;28;20140;-77
2024/03/19 11:28:31;;;;;;;7.00;2.30;;;15.90;99.90;;;;;;5051066;28;20132;-78
2024/03/19 11:31:06;;;;;;;2.22;1.80;;;16.20;99.90;;;;;;5060213;28;20264;-79
2024/03/19 11:33:33;;;;;;;2.47;2.17;;;16.50;99.90;;;;;;5060673;28;20020;-81
2024/03/19 11:35:59;;;;;;;3.38;1.83;;;17.00;99.90;;;;;;5043250;28;20041;-83
2024/03/19 11:38:33;;;;;;;4.47;1.80;;;17.40;99.90;;;;;;5062188;28;20039;-84
2024/03/19 11:40:59;;;;;;;3.45;1.80;;;17.90;99.90;;;;;;5058006;28;20082;-86
2024/03/19 11:43:25;;;;;;;1.80;1.40;;;18.20;99.90;;;;;;5018288;28;20040;-87
2024/03/19 11:45:51;;;;;;;2.55;1.65;;;18.20;99.90;;;;;;5053628;28;20042;-89
2024/03/19 11:48:22;;;;;;;2.03;1.40;;;18.30;99.90;;;;;;5066254;28;20029;-87
2024/03/19 11:50:58;;;;;;;2.88;1.30;;;18.30;99.90;;;;;;5051253;28;20557;-86
2024/03/19 11:53:26;;;;;;;2.40;1.60;;;18.60;99.90;;;;;;5070478;28;20504;-85
2024/03/19 11:55:55;;;;;;;2.75;1.50;;;18.70;99.90;;;;;;5067542;28;20032;-87
2024/03/19 11:58:22;;;;;;;2.25;1.50;;;19.00;99.90;;;;;;5071719;28;20086;-87
2024/03/19 12:00:50;;;;;;;4.20;1.90;;;19.50;99.40;;;;;;5042700;28;20507;-87
2024/03/19 12:03:18;;;;;;;3.92;1.80;;;19.70;98.70;;;;;;5048638;28;20057;-87
2024/03/19 12:05:50;;;;;;;3.30;1.58;;;19.90;99.60;;;;;;5057272;28;20025;-86
2024/03/19 12:08:16;;;;;;;3.00;1.58;;;19.90;98.70;;;;;;5062403;28;20020;-87
2024/03/19 12:10:43;;;;;;;2.08;1.45;;;19.90;98.90;;;;;;5070338;28;20081;-75
2024/03/19 12:13:10;;;;;;;2.65;1.42;;;20.00;98.50;;;;;;5062260;28;20029;-75
2024/03/19 12:15:37;;;;;;;4.28;1.83;;;20.10;97.70;;;;;;5069591;28;20024;-75
2024/03/19 12:18:06;;;;;;;5.10;2.30;;;20.20;97.30;;;;;;5052097;28;20495;-74
2024/03/19 12:20:34;;;;;;;2.83;1.23;;;20.40;96.90;;;;;;5062326;28;20105;-74
2024/03/19 12:23:00;;;;;;;2.53;1.80;;;20.80;96.80;;;;;;5063081;28;20035;-73
2024/03/19 12:25:30;;;;;;;5.20;1.60;;;21.00;95.90;;;;;;5066666;28;20506;-75
2024/03/19 12:27:56;;;;;;;3.15;2.22;;;21.00;96.40;;;;;;5038401;28;20032;-74
2024/03/19 12:30:22;;;;;;;2.50;1.80;;;21.10;96.10;;;;;;5069030;28;20381;-74
2024/03/19 12:33:10;;;;;;;3.00;2.03;;;21.30;96.00;;;;;;5039365;28;20456;-75
2024/03/19 12:35:38;;;;;;;3.22;2.20;;;21.70;96.20;;;;;;5062099;28;20477;-75
2024/03/19 12:38:07;;;;;;;3.75;1.90;;;21.90;96.40;;;;;;5059468;28;20119;-75
2024/03/19 12:40:33;;;;;;;2.55;2.30;;;21.60;96.40;;;;;;5055273;28;20036;-75
2024/03/19 12:42:59;;;;;;;2.50;2.03;;;21.40;96.40;;;;;;5054951;28;20029;-75